Time;durP1;ratioP1;P1;durP2;ratioP2;P2;SDS_P1;SDS_P2;PMS_P1;PMS_P2;Temp;Humidity;BMP_temperature;BMP_pressure;BME280_temperature;BME280_humidity;BME280_pressure;Samples;Min_cycle;Max_cycle;Signal;HPM_P1;HPM_P2
2022/01/02 00:00:13;;;;;;;48.53;32.13;;;;;;;;;;6242471;28;20033;-65
2022/01/02 00:03:20;;;;;;;47.60;30.95;;;;;;;;;;6233887;28;20129;-64
2022/01/02 00:06:25;;;;;;;48.83;31.23;;;;;;;;;;6241812;28;20045;-64
2022/01/02 00:09:31;;;;;;;45.28;30.50;;;;;;;;;;6243680;28;20084;-64
2022/01/02 00:12:34;;;;;;;51.83;32.38;;;;;;;;;;6247926;28;20045;-63
2022/01/02 00:15:37;;;;;;;49.88;32.53;;;;;;;;;;6243192;28;20083;-64
2022/01/02 00:18:48;;;;;;;47.83;30.75;;;;;;;;;;6247730;28;20486;-65
2022/01/02 00:21:52;;;;;;;54.22;33.58;;;;;;;;;;6245477;28;20037;-64
2022/01/02 00:24:54;;;;;;;55.00;33.30;;;;;;;;;;6244623;28;20112;-64
2022/01/02 00:27:56;;;;;;;58.63;34.92;;;;;;;;;;6246094;28;20053;-64
2022/01/02 00:30:59;;;;;;;63.22;34.60;;;;;;;;;;6246762;28;20184;-64
2022/01/02 00:34:04;;;;;;;54.88;34.97;;;;;;;;;;6247385;28;20111;-64
2022/01/02 00:37:07;;;;;;;60.88;36.35;;;;;;;;;;6246674;28;20060;-64
2022/01/02 00:40:10;;;;;;;67.00;38.90;;;;;;;;;;6241934;28;20505;-64
2022/01/02 00:43:15;;;;;;;71.43;41.40;;;;;;;;;;6244078;28;20133;-64
2022/01/02 00:46:18;;;;;;;74.45;44.42;;;;;;;;;;6242466;28;20126;-65
2022/01/02 00:49:25;;;;;;;78.57;45.85;;;;;;;;;;6238410;28;20080;-64
2022/01/02 00:52:27;;;;;;;68.75;40.92;;;;;;;;;;6238249;28;20390;-64
2022/01/02 00:55:30;;;;;;;66.25;40.30;;;;;;;;;;6239560;28;20498;-64
2022/01/02 00:58:36;;;;;;;66.38;40.33;;;;;;;;;;6241154;28;20045;-64
2022/01/02 01:01:38;;;;;;;70.53;40.80;;;;;;;;;;6240267;28;20059;-64
2022/01/02 01:04:43;;;;;;;77.00;43.88;;;;;;;;;;6238695;28;20473;-64
2022/01/02 01:07:48;;;;;;;66.88;40.72;;;;;;;;;;6237491;28;20481;-64
2022/01/02 01:10:50;;;;;;;73.95;44.13;;;;;;;;;;6240618;28;20598;-65
2022/01/02 01:13:52;;;;;;;72.43;43.13;;;;;;;;;;6240167;28;20053;-64
2022/01/02 01:16:54;;;;;;;78.53;44.45;;;;;;;;;;6241289;28;20049;-64
2022/01/02 01:19:58;;;;;;;79.43;45.80;;;;;;;;;;6241235;28;20489;-64
2022/01/02 01:22:59;;;;;;;79.97;47.03;;;;;;;;;;6238114;28;20053;-64
2022/01/02 01:26:06;;;;;;;85.82;47.40;;;;;;;;;;6242518;28;20049;-64
2022/01/02 01:29:08;;;;;;;76.93;45.25;;;;;;;;;;6245978;28;20041;-64
2022/01/02 01:32:10;;;;;;;81.97;44.90;;;;;;;;;;6242697;28;20154;-64
2022/01/02 01:35:14;;;;;;;79.18;47.35;;;;;;;;;;6237645;28;20128;-64
2022/01/02 01:38:15;;;;;;;76.80;44.63;;;;;;;;;;6242978;28;20041;-64
2022/01/02 01:41:22;;;;;;;84.22;45.78;;;;;;;;;;6243080;28;20123;-64
2022/01/02 01:44:39;;;;;;;78.60;45.83;;;;;;;;;;6241546;28;20140;-64
2022/01/02 01:47:41;;;;;;;113.78;60.60;;;;;;;;;;6239589;28;20128;-64
2022/01/02 01:50:44;;;;;;;99.35;55.67;;;;;;;;;;6239661;28;20140;-64
2022/01/02 01:53:46;;;;;;;86.35;49.20;;;;;;;;;;6244112;28;20049;-64
2022/01/02 01:56:48;;;;;;;81.00;46.80;;;;;;;;;;6237577;28;20123;-64
2022/01/02 01:59:49;;;;;;;86.28;48.90;;;;;;;;;;6243016;28;20049;-64
2022/01/02 02:02:51;;;;;;;87.85;49.20;;;;;;;;;;6242617;28;20168;-64
2022/01/02 02:05:54;;;;;;;84.57;46.75;;;;;;;;;;6235689;28;20049;-64
2022/01/02 02:08:57;;;;;;;80.43;46.00;;;;;;;;;;6239750;28;20418;-64
2022/01/02 02:12:00;;;;;;;84.07;47.17;;;;;;;;;;6241028;28;20041;-64
2022/01/02 02:15:01;;;;;;;78.93;44.88;;;;;;;;;;6241651;28;20060;-64
2022/01/02 02:18:03;;;;;;;77.80;43.53;;;;;;;;;;6239754;28;20560;-64
2022/01/02 02:21:06;;;;;;;78.65;45.83;;;;;;;;;;6240279;28;20131;-64
2022/01/02 02:24:08;;;;;;;71.97;43.40;;;;;;;;;;6242780;28;20175;-64
2022/01/02 02:27:10;;;;;;;80.30;44.92;;;;;;;;;;6233905;28;20187;-64
2022/01/02 02:30:12;;;;;;;75.95;44.22;;;;;;;;;;6241046;28;20523;-64
2022/01/02 02:33:14;;;;;;;69.40;42.45;;;;;;;;;;6242668;28;20118;-64
2022/01/02 02:36:17;;;;;;;77.18;43.45;;;;;;;;;;6243670;28;20132;-64
2022/01/02 02:39:19;;;;;;;79.13;45.08;;;;;;;;;;6242560;28;20128;-64
2022/01/02 02:42:31;;;;;;;78.45;45.28;;;;;;;;;;6237116;28;20132;-64
2022/01/02 02:49:00;;;;;;;90.80;49.50;;;;;;;;;;6239364;28;20410;-64
2022/01/02 02:52:10;;;;;;;92.10;53.10;;;;;;;;;;6238644;28;20112;-64
2022/01/02 02:55:12;;;;;;;93.38;51.38;;;;;;;;;;6241406;28;20041;-64
2022/01/02 03:01:46;;;;;;;93.72;50.75;;;;;;;;;;6293925;27;21225;-64
2022/01/02 03:04:48;;;;;;;99.10;54.90;;;;;;;;;;6278353;28;20128;-64
2022/01/02 03:07:49;;;;;;;92.57;52.95;;;;;;;;;;6274687;28;20376;-64
2022/01/02 03:10:51;;;;;;;99.38;52.05;;;;;;;;;;6257932;28;20095;-64
2022/01/02 03:13:54;;;;;;;96.00;51.75;;;;;;;;;;6259229;28;20500;-64
2022/01/02 03:16:57;;;;;;;97.40;54.17;;;;;;;;;;6256070;28;20505;-64
2022/01/02 03:19:58;;;;;;;94.10;53.22;;;;;;;;;;6255786;28;20250;-64
2022/01/02 03:23:00;;;;;;;92.50;52.53;;;;;;;;;;6268467;28;20088;-64
2022/01/02 03:26:02;;;;;;;90.22;51.25;;;;;;;;;;6249601;28;20085;-64
2022/01/02 03:29:03;;;;;;;90.13;51.28;;;;;;;;;;6248858;28;20089;-64
2022/01/02 03:32:06;;;;;;;85.55;47.15;;;;;;;;;;6247196;28;20119;-64
2022/01/02 03:35:09;;;;;;;76.22;43.63;;;;;;;;;;6247957;28;20123;-64
2022/01/02 03:38:11;;;;;;;73.82;41.58;;;;;;;;;;6245441;28;20184;-64
2022/01/02 03:41:12;;;;;;;64.05;37.78;;;;;;;;;;6252179;28;20040;-64
2022/01/02 03:44:14;;;;;;;57.80;35.22;;;;;;;;;;6247484;28;20053;-64
2022/01/02 03:47:17;;;;;;;57.03;34.95;;;;;;;;;;6247810;28;20418;-64
2022/01/02 03:50:19;;;;;;;52.13;31.60;;;;;;;;;;6249562;28;20077;-64
2022/01/02 03:53:21;;;;;;;53.17;31.52;;;;;;;;;;6246322;28;20516;-64
2022/01/02 03:56:22;;;;;;;49.80;31.42;;;;;;;;;;6249514;28;20067;-64
2022/01/02 03:59:24;;;;;;;50.35;30.83;;;;;;;;;;6244131;28;20058;-64
2022/01/02 04:02:27;;;;;;;47.67;29.02;;;;;;;;;;6251512;28;20519;-64
2022/01/02 04:05:28;;;;;;;43.78;27.73;;;;;;;;;;6245123;28;20069;-64
2022/01/02 04:08:30;;;;;;;40.70;26.98;;;;;;;;;;6250847;28;20128;-64
2022/01/02 04:11:32;;;;;;;41.97;25.85;;;;;;;;;;6245992;28;20095;-64
2022/01/02 04:14:33;;;;;;;39.17;25.42;;;;;;;;;;6232770;28;20418;-64
2022/01/02 04:17:37;;;;;;;35.03;24.05;;;;;;;;;;6247091;28;20087;-64
2022/01/02 04:20:38;;;;;;;32.72;22.60;;;;;;;;;;6246149;28;20042;-64
2022/01/02 04:23:40;;;;;;;32.55;21.88;;;;;;;;;;6243870;28;20498;-64
2022/01/02 04:26:42;;;;;;;33.17;22.98;;;;;;;;;;6232573;28;20053;-65
2022/01/02 04:29:44;;;;;;;34.00;22.33;;;;;;;;;;6233068;28;20478;-64
2022/01/02 04:32:48;;;;;;;33.17;22.75;;;;;;;;;;6236772;28;20128;-64
2022/01/02 04:35:50;;;;;;;33.85;22.25;;;;;;;;;;6242145;28;20486;-64
2022/01/02 04:38:52;;;;;;;31.95;22.42;;;;;;;;;;6236547;28;20137;-64
2022/01/02 04:41:53;;;;;;;30.58;21.48;;;;;;;;;;6234823;28;20053;-64
2022/01/02 04:44:55;;;;;;;35.05;22.02;;;;;;;;;;6229761;28;20061;-64
2022/01/02 04:47:58;;;;;;;31.55;22.33;;;;;;;;;;6229519;28;20509;-64
2022/01/02 04:50:59;;;;;;;31.15;21.17;;;;;;;;;;6234422;28;20168;-64
2022/01/02 04:54:01;;;;;;;34.08;22.65;;;;;;;;;;6229888;28;20080;-64
2022/01/02 04:57:03;;;;;;;34.80;22.20;;;;;;;;;;6232675;28;20046;-64
2022/01/02 05:00:05;;;;;;;33.97;21.90;;;;;;;;;;6236315;28;20199;-64
2022/01/02 05:03:09;;;;;;;36.83;22.73;;;;;;;;;;6234337;28;20439;-63
2022/01/02 05:06:11;;;;;;;35.70;22.73;;;;;;;;;;6230897;28;20056;-64
2022/01/02 05:09:12;;;;;;;32.10;21.55;;;;;;;;;;6230698;28;20549;-64
2022/01/02 05:12:14;;;;;;;31.30;21.75;;;;;;;;;;6233607;28;20131;-64
2022/01/02 05:15:16;;;;;;;40.03;23.02;;;;;;;;;;6229802;28;20129;-64
2022/01/02 05:18:20;;;;;;;37.25;22.65;;;;;;;;;;6233699;28;20057;-64
2022/01/02 05:21:21;;;;;;;38.40;21.58;;;;;;;;;;6230934;28;20071;-64
2022/01/02 05:24:23;;;;;;;31.15;20.30;;;;;;;;;;6233511;28;20084;-64
2022/01/02 05:27:25;;;;;;;39.45;23.75;;;;;;;;;;6235023;28;20127;-64
2022/01/02 05:30:26;;;;;;;40.30;25.10;;;;;;;;;;6240346;28;20554;-64
2022/01/02 05:33:29;;;;;;;68.38;37.83;;;;;;;;;;6240623;28;20058;-64
2022/01/02 05:36:31;;;;;;;65.15;37.03;;;;;;;;;;6230595;28;20494;-64
2022/01/02 05:39:33;;;;;;;66.70;38.72;;;;;;;;;;6242605;28;20128;-64
2022/01/02 05:42:34;;;;;;;70.18;39.13;;;;;;;;;;6254941;28;20123;-64
2022/01/02 05:45:36;;;;;;;65.22;39.88;;;;;;;;;;6234490;28;20115;-64
2022/01/02 05:48:39;;;;;;;77.35;43.70;;;;;;;;;;6233685;28;20128;-64
2022/01/02 05:51:41;;;;;;;80.82;44.53;;;;;;;;;;6231821;28;20050;-64
2022/01/02 05:54:42;;;;;;;80.82;44.53;;;;;;;;;;6230214;28;20188;-64
2022/01/02 05:57:44;;;;;;;84.85;46.00;;;;;;;;;;6232538;28;20465;-64
2022/01/02 06:00:46;;;;;;;89.15;48.85;;;;;;;;;;6233364;28;20125;-64
2022/01/02 06:03:48;;;;;;;91.03;50.60;;;;;;;;;;6235880;28;20502;-64
2022/01/02 06:06:50;;;;;;;96.18;50.35;;;;;;;;;;6228252;28;20164;-64
2022/01/02 06:09:52;;;;;;;94.07;51.28;;;;;;;;;;6232590;28;20502;-64
2022/01/02 06:12:53;;;;;;;88.32;49.75;;;;;;;;;;6227987;28;20144;-64
2022/01/02 06:15:55;;;;;;;92.80;49.42;;;;;;;;;;6228964;28;20058;-64
2022/01/02 06:18:58;;;;;;;90.50;49.03;;;;;;;;;;6227902;28;20077;-65
2022/01/02 06:22:00;;;;;;;92.63;50.28;;;;;;;;;;6225586;28;20597;-64
2022/01/02 06:25:02;;;;;;;88.75;49.97;;;;;;;;;;6227234;28;20057;-64
2022/01/02 06:28:04;;;;;;;89.28;48.70;;;;;;;;;;6226490;28;20504;-64
2022/01/02 06:31:05;;;;;;;93.50;48.60;;;;;;;;;;6228514;28;20084;-64
2022/01/02 06:34:08;;;;;;;93.68;48.70;;;;;;;;;;6227562;28;20123;-64
2022/01/02 06:37:10;;;;;;;85.00;46.95;;;;;;;;;;6227843;28;20069;-64
2022/01/02 06:40:12;;;;;;;91.35;48.08;;;;;;;;;;6232412;28;20096;-64
2022/01/02 06:43:15;;;;;;;88.30;46.42;;;;;;;;;;6232429;28;20042;-64
2022/01/02 06:46:17;;;;;;;85.95;46.65;;;;;;;;;;6230235;28;20061;-64
2022/01/02 06:49:20;;;;;;;80.57;46.33;;;;;;;;;;6232667;28;20053;-64
2022/01/02 06:52:21;;;;;;;77.88;42.25;;;;;;;;;;6230233;28;20183;-64
2022/01/02 06:55:23;;;;;;;73.07;40.65;;;;;;;;;;6232423;28;20042;-64
2022/01/02 06:58:25;;;;;;;63.45;36.45;;;;;;;;;;6231674;28;20056;-63
2022/01/02 07:01:26;;;;;;;56.92;32.55;;;;;;;;;;6228460;28;20434;-63
2022/01/02 07:04:29;;;;;;;55.65;33.05;;;;;;;;;;6236496;28;20105;-64
2022/01/02 07:07:31;;;;;;;55.60;34.47;;;;;;;;;;6224053;28;20559;-64
2022/01/02 07:10:32;;;;;;;78.20;42.10;;;;;;;;;;6227464;28;20156;-64
2022/01/02 07:13:34;;;;;;;71.53;40.22;;;;;;;;;;6228327;28;20128;-64
2022/01/02 07:16:36;;;;;;;72.95;39.90;;;;;;;;;;6224947;28;20046;-64
2022/01/02 07:19:38;;;;;;;78.70;43.58;;;;;;;;;;6228755;28;20184;-63
2022/01/02 07:22:42;;;;;;;81.10;43.83;;;;;;;;;;6224195;28;20080;-64
2022/01/02 07:25:43;;;;;;;94.32;46.47;;;;;;;;;;6227356;28;20046;-64
2022/01/02 07:28:45;;;;;;;87.72;45.60;;;;;;;;;;6244178;28;20087;-64
2022/01/02 07:31:47;;;;;;;81.70;44.80;;;;;;;;;;6229317;28;20526;-63
2022/01/02 07:34:50;;;;;;;76.80;42.45;;;;;;;;;;6234602;28;20145;-64
2022/01/02 07:37:51;;;;;;;79.07;44.03;;;;;;;;;;6229046;28;20124;-64
2022/01/02 07:40:53;;;;;;;80.38;43.90;;;;;;;;;;6228714;28;20525;-64
2022/01/02 07:43:58;;;;;;;78.85;42.83;;;;;;;;;;6229011;28;20060;-64
2022/01/02 07:46:59;;;;;;;80.45;43.55;;;;;;;;;;6232738;28;20054;-64
2022/01/02 07:50:02;;;;;;;65.75;38.17;;;;;;;;;;6240700;28;20542;-64
2022/01/02 07:53:04;;;;;;;62.05;35.50;;;;;;;;;;6254219;28;20116;-64
2022/01/02 07:56:05;;;;;;;65.53;37.50;;;;;;;;;;6265900;28;20168;-64
2022/01/02 07:59:08;;;;;;;66.22;37.08;;;;;;;;;;6254748;28;20191;-64
2022/01/02 08:02:09;;;;;;;65.90;38.72;;;;;;;;;;6259895;28;20393;-64
2022/01/02 08:05:12;;;;;;;71.30;40.15;;;;;;;;;;6252482;28;20115;-64
2022/01/02 08:08:14;;;;;;;74.00;42.30;;;;;;;;;;6253734;28;20103;-63
2022/01/02 08:11:16;;;;;;;70.28;40.15;;;;;;;;;;6251900;28;20077;-64
2022/01/02 08:14:18;;;;;;;67.18;39.45;;;;;;;;;;6255740;28;20056;-64
2022/01/02 08:17:20;;;;;;;69.65;40.22;;;;;;;;;;6253740;28;20171;-64
2022/01/02 08:20:23;;;;;;;64.90;37.65;;;;;;;;;;6253240;28;20085;-64
2022/01/02 08:23:24;;;;;;;64.30;38.85;;;;;;;;;;6258874;28;20100;-64
2022/01/02 08:26:26;;;;;;;63.88;37.90;;;;;;;;;;6251241;28;20135;-64
2022/01/02 08:29:27;;;;;;;63.83;37.67;;;;;;;;;;6253635;28;20447;-64
2022/01/02 08:32:29;;;;;;;60.10;36.65;;;;;;;;;;6251101;28;20133;-64
2022/01/02 08:35:32;;;;;;;60.85;37.35;;;;;;;;;;6254788;28;20084;-64
2022/01/02 08:38:33;;;;;;;62.67;38.08;;;;;;;;;;6254316;28;20089;-63
2022/01/02 08:41:35;;;;;;;64.18;38.90;;;;;;;;;;6252280;28;20131;-64
2022/01/02 08:44:39;;;;;;;63.50;37.22;;;;;;;;;;6255458;28;20077;-63
2022/01/02 08:47:40;;;;;;;60.97;37.17;;;;;;;;;;6254679;28;20045;-63
2022/01/02 08:50:43;;;;;;;56.53;35.63;;;;;;;;;;6253358;28;20049;-64
2022/01/02 08:53:45;;;;;;;59.72;37.40;;;;;;;;;;6256083;28;20175;-64
2022/01/02 08:56:46;;;;;;;57.15;35.97;;;;;;;;;;6252251;28;20045;-64
2022/01/02 08:59:48;;;;;;;57.65;35.85;;;;;;;;;;6253387;28;20219;-63
2022/01/02 09:02:49;;;;;;;55.25;36.05;;;;;;;;;;6258967;28;20128;-64
2022/01/02 09:05:52;;;;;;;53.60;35.20;;;;;;;;;;6255505;28;20121;-63
2022/01/02 09:08:55;;;;;;;69.72;45.75;;;;;;;;;;6253493;28;20138;-64
2022/01/02 09:11:56;;;;;;;59.85;38.55;;;;;;;;;;6252133;28;20701;-62
2022/01/02 09:14:58;;;;;;;67.65;44.28;;;;;;;;;;6249462;28;20144;-63
2022/01/02 09:17:59;;;;;;;52.85;36.97;;;;;;;;;;6255239;28;20124;-64
2022/01/02 09:21:02;;;;;;;64.50;40.95;;;;;;;;;;6248583;28;20184;-64
2022/01/02 09:24:05;;;;;;;63.30;40.47;;;;;;;;;;6253207;28;20132;-64
2022/01/02 09:27:06;;;;;;;80.68;50.22;;;;;;;;;;6250555;28;20110;-63
2022/01/02 09:30:09;;;;;;;61.05;41.15;;;;;;;;;;6251041;28;20399;-64
2022/01/02 09:33:11;;;;;;;52.60;36.58;;;;;;;;;;6250951;28;20084;-63
2022/01/02 09:36:14;;;;;;;51.13;35.35;;;;;;;;;;6250055;28;20065;-63
2022/01/02 09:39:15;;;;;;;49.97;34.95;;;;;;;;;;6249732;28;20076;-63
2022/01/02 09:42:17;;;;;;;49.40;35.45;;;;;;;;;;6260741;28;20062;-64
2022/01/02 09:45:19;;;;;;;50.22;34.47;;;;;;;;;;6272099;28;20521;-64
2022/01/02 09:48:21;;;;;;;49.83;32.67;;;;;;;;;;6270062;28;20401;-64
2022/01/02 09:51:26;;;;;;;44.78;32.15;;;;;;;;;;6258666;28;20768;-63
2022/01/02 09:54:27;;;;;;;48.58;32.92;;;;;;;;;;6260768;28;20048;-63
2022/01/02 09:57:29;;;;;;;43.10;31.30;;;;;;;;;;6270160;28;20587;-64
2022/01/02 10:00:30;;;;;;;40.88;30.33;;;;;;;;;;6266675;28;20130;-64
2022/01/02 10:03:42;;;;;;;40.85;31.30;;;;;;;;;;6257496;28;20083;-63
2022/01/02 10:06:48;;;;;;;45.60;33.38;;;;;;;;;;6253621;28;20391;-64
2022/01/02 10:09:49;;;;;;;41.08;30.80;;;;;;;;;;6256883;28;20045;-64
2022/01/02 10:12:51;;;;;;;43.00;31.85;;;;;;;;;;6256400;28;20115;-64
2022/01/02 10:15:52;;;;;;;39.20;30.35;;;;;;;;;;6263206;28;20068;-64
2022/01/02 10:18:55;;;;;;;40.55;31.70;;;;;;;;;;6259593;28;20183;-64
2022/01/02 10:21:59;;;;;;;38.70;30.55;;;;;;;;;;6261143;28;20072;-64
2022/01/02 10:25:01;;;;;;;38.20;29.92;;;;;;;;;;6259001;28;20129;-64
2022/01/02 10:28:18;;;;;;;38.53;30.05;;;;;;;;;;6254545;28;20045;-64
2022/01/02 10:31:20;;;;;;;39.92;29.75;;;;;;;;;;6256371;28;20041;-61
2022/01/02 10:34:31;;;;;;;43.50;33.17;;;;;;;;;;6259509;28;20622;-64
2022/01/02 10:37:34;;;;;;;38.22;28.95;;;;;;;;;;6257873;28;20195;-64
2022/01/02 10:40:38;;;;;;;38.70;28.25;;;;;;;;;;6255879;28;20103;-64
2022/01/02 10:43:39;;;;;;;;;;;;;;;;;;6254195;28;20037;-64
2022/01/02 10:46:41;;;;;;;34.83;26.25;;;;;;;;;;6249398;28;20015;-64
2022/01/02 10:49:55;;;;;;;35.28;27.30;;;;;;;;;;6252290;28;20038;-64
2022/01/02 10:52:58;;;;;;;40.20;27.73;;;;;;;;;;6251711;28;20124;-64
2022/01/02 10:56:00;;;;;;;39.65;27.75;;;;;;;;;;6255293;28;20132;-64
2022/01/02 10:59:02;;;;;;;36.00;26.13;;;;;;;;;;6250996;28;20626;-64
2022/01/02 11:02:04;;;;;;;36.80;27.52;;;;;;;;;;6251720;28;20069;-64
2022/01/02 11:05:08;;;;;;;38.80;26.55;;;;;;;;;;6251873;28;20049;-64
2022/01/02 11:08:12;;;;;;;40.92;28.10;;;;;;;;;;6248803;28;20053;-64
2022/01/02 11:11:14;;;;;;;36.55;25.60;;;;;;;;;;6256134;28;20037;-64
2022/01/02 11:14:15;;;;;;;34.42;24.67;;;;;;;;;;6249025;28;20176;-64
2022/01/02 11:17:17;;;;;;;37.58;25.70;;;;;;;;;;6253572;28;20041;-64
2022/01/02 11:20:24;;;;;;;35.63;25.00;;;;;;;;;;6265453;28;20083;-64
2022/01/02 11:23:30;;;;;;;38.38;25.23;;;;;;;;;;6261753;28;20074;-64
2022/01/02 11:26:39;;;;;;;34.20;24.77;;;;;;;;;;6262409;28;20122;-64
2022/01/02 11:29:41;;;;;;;37.70;27.02;;;;;;;;;;6260627;28;20080;-64
2022/01/02 11:32:42;;;;;;;39.50;26.85;;;;;;;;;;6261956;28;20073;-64
2022/01/02 11:35:47;;;;;;;35.95;26.58;;;;;;;;;;6258852;28;20167;-64
2022/01/02 11:38:58;;;;;;;39.03;26.65;;;;;;;;;;6262928;28;20044;-64
2022/01/02 11:41:59;;;;;;;39.80;27.05;;;;;;;;;;6253526;28;20049;-64
2022/01/02 11:45:02;;;;;;;41.05;26.02;;;;;;;;;;6257809;28;20144;-64
2022/01/02 11:48:25;;;;;;;36.13;24.67;;;;;;;;;;6261424;28;20075;-64
2022/01/02 11:51:57;;;;;;;36.58;25.00;;;;;;;;;;6254088;28;20045;-64
2022/01/02 11:55:16;;;;;;;37.10;25.65;;;;;;;;;;6254467;28;20064;-64
2022/01/02 11:58:50;;;;;;;48.55;30.75;;;;;;;;;;6251585;28;20057;-64
2022/01/02 12:01:51;;;;;;;47.08;30.58;;;;;;;;;;6259436;28;20143;-64
2022/01/02 12:05:11;;;;;;;35.35;24.30;;;;;;;;;;6251816;28;20512;-64
2022/01/02 12:08:33;;;;;;;33.00;23.83;;;;;;;;;;6252379;28;20470;-64
2022/01/02 12:11:49;;;;;;;34.35;23.63;;;;;;;;;;6250474;28;20351;-64
2022/01/02 12:14:54;;;;;;;34.47;23.63;;;;;;;;;;6253758;28;20045;-64
2022/01/02 12:18:05;;;;;;;37.40;23.83;;;;;;;;;;6261355;28;20105;-64
2022/01/02 12:21:11;;;;;;;41.85;29.02;;;;;;;;;;6259687;28;20099;-64
2022/01/02 12:24:12;;;;;;;107.63;69.28;;;;;;;;;;6255352;28;20060;-64
2022/01/02 12:27:17;;;;;;;47.58;31.80;;;;;;;;;;6266173;28;20077;-63
2022/01/02 12:30:19;;;;;;;34.50;23.60;;;;;;;;;;6262340;28;20045;-63
2022/01/02 12:33:23;;;;;;;36.40;23.45;;;;;;;;;;6256455;28;20080;-63
2022/01/02 12:36:24;;;;;;;37.00;24.00;;;;;;;;;;6258664;28;20376;-63
2022/01/02 12:39:28;;;;;;;33.50;23.55;;;;;;;;;;6264590;28;20184;-63
2022/01/02 12:42:30;;;;;;;34.03;23.17;;;;;;;;;;6254374;28;20045;-63
2022/01/02 12:45:32;;;;;;;34.10;23.73;;;;;;;;;;6261246;28;20557;-63
2022/01/02 12:48:34;;;;;;;35.47;23.27;;;;;;;;;;6257263;28;20060;-63
2022/01/02 12:51:38;;;;;;;36.13;23.98;;;;;;;;;;6261469;28;20064;-63
2022/01/02 12:54:41;;;;;;;37.88;23.38;;;;;;;;;;6261789;28;20591;-63
2022/01/02 12:57:44;;;;;;;54.00;31.25;;;;;;;;;;6259662;28;20553;-63
2022/01/02 13:00:46;;;;;;;34.23;22.80;;;;;;;;;;6259847;28;20391;-63
2022/01/02 13:03:47;;;;;;;106.32;61.97;;;;;;;;;;6263884;28;20132;-63
2022/01/02 13:06:50;;;;;;;56.80;31.15;;;;;;;;;;6268015;28;20053;-65
2022/01/02 13:09:53;;;;;;;31.10;22.60;;;;;;;;;;6256413;28;20105;-64
2022/01/02 13:12:56;;;;;;;33.22;20.63;;;;;;;;;;6253119;28;20162;-65
2022/01/02 13:16:05;;;;;;;32.67;20.08;;;;;;;;;;6254784;28;20124;-63
2022/01/02 13:19:07;;;;;;;27.65;19.27;;;;;;;;;;6251845;28;20136;-66
2022/01/02 13:22:09;;;;;;;28.83;19.55;;;;;;;;;;6252767;28;20042;-63
2022/01/02 13:25:12;;;;;;;25.77;18.73;;;;;;;;;;6251421;28;20456;-65
2022/01/02 13:28:16;;;;;;;30.52;19.77;;;;;;;;;;6263832;28;20171;-65
2022/01/02 13:31:26;;;;;;;26.48;19.63;;;;;;;;;;6256130;28;20049;-63
2022/01/02 13:34:29;;;;;;;31.80;19.85;;;;;;;;;;6255352;28;20501;-65
2022/01/02 13:37:37;;;;;;;30.48;20.80;;;;;;;;;;6252549;28;20056;-65
2022/01/02 13:40:40;;;;;;;28.98;20.05;;;;;;;;;;6255203;28;20124;-65
2022/01/02 13:43:42;;;;;;;31.65;20.48;;;;;;;;;;6255828;28;20052;-65
2022/01/02 13:46:51;;;;;;;32.88;21.90;;;;;;;;;;6265109;28;20081;-65
2022/01/02 13:49:56;;;;;;;28.85;19.70;;;;;;;;;;6266157;28;20080;-65
2022/01/02 13:53:02;;;;;;;31.23;19.98;;;;;;;;;;6263067;28;20053;-65
2022/01/02 13:56:08;;;;;;;27.88;19.88;;;;;;;;;;6262744;28;20486;-65
2022/01/02 13:59:12;;;;;;;28.50;19.63;;;;;;;;;;6259769;28;20049;-64
2022/01/02 14:02:14;;;;;;;28.30;20.55;;;;;;;;;;6261674;28;20057;-65
2022/01/02 14:05:15;;;;;;;31.13;20.98;;;;;;;;;;6257349;28;20163;-64
2022/01/02 14:08:18;;;;;;;31.92;21.13;;;;;;;;;;6251614;28;20541;-64
2022/01/02 14:11:24;;;;;;;31.35;19.38;;;;;;;;;;6251958;28;20122;-65
2022/01/02 14:14:48;;;;;;;34.22;20.13;;;;;;;;;;6250851;28;20049;-64
2022/01/02 14:17:50;;;;;;;36.42;22.85;;;;;;;;;;6256586;28;20095;-65
2022/01/02 14:21:00;;;;;;;33.97;22.50;;;;;;;;;;6257847;28;20046;-66
2022/01/02 14:24:01;;;;;;;33.47;20.88;;;;;;;;;;6253785;28;20050;-63
2022/01/02 14:27:04;;;;;;;32.75;21.25;;;;;;;;;;6250501;28;20049;-63
2022/01/02 14:30:08;;;;;;;31.15;20.85;;;;;;;;;;6253686;28;20056;-65
2022/01/02 14:33:10;;;;;;;33.95;21.20;;;;;;;;;;6254575;28;20044;-63
2022/01/02 14:36:11;;;;;;;29.75;19.77;;;;;;;;;;6254152;28;20051;-65
2022/01/02 14:39:13;;;;;;;33.28;21.13;;;;;;;;;;6254037;28;20128;-63
2022/01/02 14:42:15;;;;;;;32.95;21.27;;;;;;;;;;6256202;28;20544;-63
2022/01/02 14:45:18;;;;;;;34.90;21.30;;;;;;;;;;6255126;28;20128;-63
2022/01/02 14:48:22;;;;;;;36.67;21.98;;;;;;;;;;6256534;28;20126;-64
2022/01/02 14:51:24;;;;;;;34.42;22.60;;;;;;;;;;6255424;28;20053;-63
2022/01/02 14:54:25;;;;;;;31.35;21.23;;;;;;;;;;6252631;28;20085;-63
2022/01/02 14:57:29;;;;;;;39.08;22.38;;;;;;;;;;6255076;28;20132;-65
2022/01/02 15:00:32;;;;;;;36.63;23.48;;;;;;;;;;6257973;28;20446;-66
2022/01/02 15:03:34;;;;;;;40.30;23.52;;;;;;;;;;6257389;28;20461;-63
2022/01/02 15:06:37;;;;;;;36.65;23.92;;;;;;;;;;6253517;28;20132;-63
2022/01/02 15:09:39;;;;;;;37.05;23.23;;;;;;;;;;6255089;28;20136;-63
2022/01/02 15:12:41;;;;;;;39.83;23.17;;;;;;;;;;6253923;28;20149;-65
2022/01/02 15:15:44;;;;;;;35.38;21.83;;;;;;;;;;6255359;28;20172;-65
2022/01/02 15:18:46;;;;;;;37.20;22.77;;;;;;;;;;6254680;28;20104;-66
2022/01/02 15:21:48;;;;;;;36.20;21.77;;;;;;;;;;6259552;28;20049;-65
2022/01/02 15:24:49;;;;;;;39.00;22.70;;;;;;;;;;6259775;28;20512;-66
2022/01/02 15:27:51;;;;;;;35.83;22.27;;;;;;;;;;6254134;28;20084;-67
2022/01/02 15:30:54;;;;;;;91.97;50.20;;;;;;;;;;6251934;28;20421;-67
2022/01/02 15:33:56;;;;;;;59.20;35.03;;;;;;;;;;6253209;28;20132;-67
2022/01/02 15:36:58;;;;;;;147.15;81.57;;;;;;;;;;6252774;28;20119;-66
2022/01/02 15:40:00;;;;;;;134.95;70.40;;;;;;;;;;6250061;28;20414;-64
2022/01/02 15:43:01;;;;;;;71.47;39.97;;;;;;;;;;6252139;28;20049;-65
2022/01/02 15:46:05;;;;;;;47.05;27.20;;;;;;;;;;6249092;28;20186;-65
2022/01/02 15:49:06;;;;;;;38.83;23.50;;;;;;;;;;6250682;28;20371;-65
2022/01/02 15:52:08;;;;;;;41.25;23.77;;;;;;;;;;6247832;28;20519;-65
2022/01/02 15:55:10;;;;;;;40.17;23.15;;;;;;;;;;6252703;28;20602;-65
2022/01/02 15:58:12;;;;;;;37.75;21.95;;;;;;;;;;6253106;28;20150;-66
2022/01/02 16:01:15;;;;;;;39.17;23.95;;;;;;;;;;6245454;28;20042;-65
2022/01/02 16:04:18;;;;;;;43.00;23.85;;;;;;;;;;6255560;28;20056;-65
2022/01/02 16:07:19;;;;;;;41.28;24.45;;;;;;;;;;6248888;28;20502;-65
2022/01/02 16:10:22;;;;;;;35.72;22.92;;;;;;;;;;6260454;28;20060;-65
2022/01/02 16:13:23;;;;;;;39.13;23.90;;;;;;;;;;6256635;28;20409;-65
2022/01/02 16:16:26;;;;;;;35.72;23.02;;;;;;;;;;6254066;28;20054;-65
2022/01/02 16:19:28;;;;;;;41.28;24.30;;;;;;;;;;6258629;28;20135;-65
2022/01/02 16:22:29;;;;;;;44.60;23.60;;;;;;;;;;6254908;28;20283;-65
2022/01/02 16:25:31;;;;;;;40.45;24.20;;;;;;;;;;6256920;28;20083;-65
2022/01/02 16:28:33;;;;;;;52.20;32.65;;;;;;;;;;6258842;28;20063;-65
2022/01/02 16:31:36;;;;;;;46.30;27.88;;;;;;;;;;6250599;28;20053;-65
2022/01/02 16:34:38;;;;;;;59.73;32.30;;;;;;;;;;6256632;28;20386;-65
2022/01/02 16:37:39;;;;;;;49.50;29.88;;;;;;;;;;6252915;28;20049;-65
2022/01/02 16:40:43;;;;;;;45.00;28.10;;;;;;;;;;6254975;28;20060;-65
2022/01/02 16:43:45;;;;;;;45.38;26.25;;;;;;;;;;6258082;28;20037;-66
2022/01/02 16:46:48;;;;;;;38.88;23.75;;;;;;;;;;6258015;28;20072;-66
2022/01/02 16:49:50;;;;;;;38.70;23.50;;;;;;;;;;6261722;28;20041;-65
2022/01/02 16:52:52;;;;;;;50.85;25.30;;;;;;;;;;6261851;28;20167;-65
2022/01/02 16:55:54;;;;;;;41.88;24.13;;;;;;;;;;6261137;28;20036;-65
2022/01/02 16:58:56;;;;;;;41.80;24.67;;;;;;;;;;6260417;28;20547;-65
2022/01/02 17:01:59;;;;;;;42.35;25.02;;;;;;;;;;6260163;28;20055;-65
2022/01/02 17:05:01;;;;;;;38.88;23.83;;;;;;;;;;6256633;28;20498;-65
2022/01/02 17:08:03;;;;;;;38.95;23.08;;;;;;;;;;6258138;28;20591;-65
2022/01/02 17:11:07;;;;;;;37.80;23.05;;;;;;;;;;6256118;28;20056;-67
2022/01/02 17:14:08;;;;;;;;;;;;;;;;;;6256648;28;20056;-65
2022/01/02 17:17:12;;;;;;;39.50;23.23;;;;;;;;;;6256485;28;19963;-65
2022/01/02 17:20:13;;;;;;;41.27;24.03;;;;;;;;;;6254219;28;20119;-65
2022/01/02 17:23:16;;;;;;;38.33;22.65;;;;;;;;;;6261869;28;20171;-65
2022/01/02 17:26:18;;;;;;;41.33;23.63;;;;;;;;;;6258176;28;20525;-65
2022/01/02 17:29:19;;;;;;;42.22;24.00;;;;;;;;;;6255968;28;20187;-65
2022/01/02 17:32:22;;;;;;;39.63;23.13;;;;;;;;;;6256642;28;20053;-65
2022/01/02 17:35:24;;;;;;;39.95;23.02;;;;;;;;;;6250837;28;20127;-65
2022/01/02 17:38:26;;;;;;;41.47;23.85;;;;;;;;;;6252789;28;20049;-65
2022/01/02 17:41:28;;;;;;;38.78;22.58;;;;;;;;;;6247626;28;20045;-65
2022/01/02 17:44:31;;;;;;;42.35;24.30;;;;;;;;;;6257593;28;20079;-65
2022/01/02 17:47:34;;;;;;;45.83;24.27;;;;;;;;;;6253867;28;20136;-65
2022/01/02 17:50:36;;;;;;;39.80;23.98;;;;;;;;;;6254207;28;20128;-65
2022/01/02 17:53:37;;;;;;;40.97;25.25;;;;;;;;;;6260184;28;20071;-65